sensor_id;sensor_type;location;lat;lon;timestamp;pressure;altitude;pressure_sealevel;temperature;humidity
45113;BME280;30873;53.908;27.576;2022-10-16T00:03:42;1022.4;;;13.5;56
45113;BME280;30873;53.908;27.576;2022-10-16T00:08:48;1022.5;;;13.5;55.9
45113;BME280;30873;53.908;27.576;2022-10-16T00:13:54;1022.5;;;13.4;55.9
45113;BME280;30873;53.908;27.576;2022-10-16T00:18:41;1022.5;;;13.5;55.9
45113;BME280;30873;53.908;27.576;2022-10-16T00:23:51;1022.5;;;13.4;55.8
45113;BME280;30873;53.908;27.576;2022-10-16T00:28:41;1022.5;;;13.4;55.8
45113;BME280;30873;53.908;27.576;2022-10-16T00:33:51;1022.5;;;13.4;55.8
45113;BME280;30873;53.908;27.576;2022-10-16T00:38:39;1022.5;;;13.3;56
45113;BME280;30873;53.908;27.576;2022-10-16T00:43:46;1022.5;;;13.4;55.8
45113;BME280;30873;53.908;27.576;2022-10-16T00:48:50;1022.5;;;13.4;55.9
45113;BME280;30873;53.908;27.576;2022-10-16T00:53:49;1022.5;;;13.4;55.8
45113;BME280;30873;53.908;27.576;2022-10-16T00:59:10;1022.5;;;13.4;55.7
45113;BME280;30873;53.908;27.576;2022-10-16T01:03:59;1022.5;;;13.3;55.8
45113;BME280;30873;53.908;27.576;2022-10-16T01:08:53;1022.5;;;13.2;55.9
45113;BME280;30873;53.908;27.576;2022-10-16T01:13:46;1022.5;;;13.1;56.1
45113;BME280;30873;53.908;27.576;2022-10-16T01:18:42;1022.6;;;13.1;56.2
45113;BME280;30873;53.908;27.576;2022-10-16T01:23:55;1022.6;;;13;56.4
45113;BME280;30873;53.908;27.576;2022-10-16T01:28:49;1022.6;;;12.9;56.6
45113;BME280;30873;53.908;27.576;2022-10-16T01:34:18;1022.6;;;12.9;56.7
45113;BME280;30873;53.908;27.576;2022-10-16T01:38:42;1022.7;;;12.8;56.8
45113;BME280;30873;53.908;27.576;2022-10-16T01:44:02;1022.7;;;12.8;57.1
45113;BME280;30873;53.908;27.576;2022-10-16T01:48:41;1022.7;;;12.7;57.3
45113;BME280;30873;53.908;27.576;2022-10-16T01:53:48;1022.7;;;12.7;57.4
45113;BME280;30873;53.908;27.576;2022-10-16T01:58:42;1022.7;;;12.6;57.5
45113;BME280;30873;53.908;27.576;2022-10-16T02:08:39;1022.9;;;12.7;57.4
45113;BME280;30873;53.908;27.576;2022-10-16T02:14:07;1022.9;;;12.7;57.5
45113;BME280;30873;53.908;27.576;2022-10-16T02:18:42;1022.9;;;12.6;57.6
45113;BME280;30873;53.908;27.576;2022-10-16T02:23:42;1022.9;;;12.6;57.7
45113;BME280;30873;53.908;27.576;2022-10-16T02:28:51;1022.9;;;12.5;57.9
45113;BME280;30873;53.908;27.576;2022-10-16T02:33:42;1022.9;;;12.5;58
45113;BME280;30873;53.908;27.576;2022-10-16T02:38:59;1022.9;;;12.4;58
45113;BME280;30873;53.908;27.576;2022-10-16T02:43:49;1022.9;;;12.4;58.1
45113;BME280;30873;53.908;27.576;2022-10-16T02:48:51;1023;;;12.4;58.2
45113;BME280;30873;53.908;27.576;2022-10-16T02:53:41;1023.1;;;12.3;58.2
45113;BME280;30873;53.908;27.576;2022-10-16T02:58:41;1023.1;;;12.3;58.3
45113;BME280;30873;53.908;27.576;2022-10-16T03:03:51;1023.1;;;12.3;58.4
45113;BME280;30873;53.908;27.576;2022-10-16T03:08:49;1023.1;;;12.2;58.4
45113;BME280;30873;53.908;27.576;2022-10-16T03:13:49;1023.1;;;12.2;58.6
45113;BME280;30873;53.908;27.576;2022-10-16T03:18:57;1023.2;;;12.1;58.7
45113;BME280;30873;53.908;27.576;2022-10-16T03:23:41;1023.2;;;12.1;58.9
45113;BME280;30873;53.908;27.576;2022-10-16T03:28:41;1023.2;;;12;58.9
45113;BME280;30873;53.908;27.576;2022-10-16T03:33:51;1023.2;;;11.9;59.1
45113;BME280;30873;53.908;27.576;2022-10-16T03:38:41;1023.2;;;11.9;59.1
45113;BME280;30873;53.908;27.576;2022-10-16T03:43:41;1023.3;;;11.9;59.2
45113;BME280;30873;53.908;27.576;2022-10-16T03:48:51;1023.4;;;11.9;59.2
45113;BME280;30873;53.908;27.576;2022-10-16T03:53:59;1023.4;;;11.8;59.3
45113;BME280;30873;53.908;27.576;2022-10-16T03:58:59;1023.4;;;11.7;59.5
45113;BME280;30873;53.908;27.576;2022-10-16T04:03:41;1023.4;;;11.7;59.5
45113;BME280;30873;53.908;27.576;2022-10-16T04:08:41;1023.5;;;11.7;59.6
45113;BME280;30873;53.908;27.576;2022-10-16T04:13:57;1023.5;;;11.6;59.8
45113;BME280;30873;53.908;27.576;2022-10-16T04:18:49;1023.6;;;11.6;59.9
45113;BME280;30873;53.908;27.576;2022-10-16T04:23:51;1023.6;;;11.5;60
45113;BME280;30873;53.908;27.576;2022-10-16T04:28:51;1023.6;;;11.4;60.1
45113;BME280;30873;53.908;27.576;2022-10-16T04:33:51;1023.6;;;11.4;60.2
45113;BME280;30873;53.908;27.576;2022-10-16T04:39:01;1023.7;;;11.4;60.2
45113;BME280;30873;53.908;27.576;2022-10-16T04:43:41;1023.7;;;11.4;60.1
45113;BME280;30873;53.908;27.576;2022-10-16T04:48:49;1023.6;;;11.4;60.2
45113;BME280;30873;53.908;27.576;2022-10-16T04:53:41;1023.5;;;11.4;60.2
45113;BME280;30873;53.908;27.576;2022-10-16T04:59:03;1023.5;;;11.3;60.3
45113;BME280;30873;53.908;27.576;2022-10-16T05:03:59;1023.5;;;11.3;60.3
45113;BME280;30873;53.908;27.576;2022-10-16T05:08:49;1023.5;;;11.3;60.3
45113;BME280;30873;53.908;27.576;2022-10-16T05:13:51;1023.5;;;11.2;60.4
45113;BME280;30873;53.908;27.576;2022-10-16T05:18:51;1023.5;;;11.2;60.5
45113;BME280;30873;53.908;27.576;2022-10-16T05:23:52;1023.6;;;11.2;60.4
45113;BME280;30873;53.908;27.576;2022-10-16T05:28:41;1023.6;;;11.2;60.5
45113;BME280;30873;53.908;27.576;2022-10-16T05:33:51;1023.5;;;11.1;60.6
45113;BME280;30873;53.908;27.576;2022-10-16T05:38:50;1023.6;;;11.1;60.4
45113;BME280;30873;53.908;27.576;2022-10-16T05:43:49;1023.6;;;11.1;60.4
45113;BME280;30873;53.908;27.576;2022-10-16T05:48:59;1023.6;;;11.2;60.2
45113;BME280;30873;53.908;27.576;2022-10-16T05:53:41;1023.7;;;11.3;59.7
45113;BME280;30873;53.908;27.576;2022-10-16T05:58:41;1023.7;;;11.4;59.5
45113;BME280;30873;53.908;27.576;2022-10-16T06:03:51;1023.8;;;11.6;58.9
45113;BME280;30873;53.908;27.576;2022-10-16T06:08:40;1023.8;;;11.6;58.7
45113;BME280;30873;53.908;27.576;2022-10-16T06:14:01;1023.8;;;11.7;58.3
45113;BME280;30873;53.908;27.576;2022-10-16T06:19:04;1023.8;;;11.7;58.1
45113;BME280;30873;53.908;27.576;2022-10-16T06:23:41;1023.9;;;11.9;57.5
45113;BME280;30873;53.908;27.576;2022-10-16T06:28:59;1024;;;11.8;57.3
45113;BME280;30873;53.908;27.576;2022-10-16T06:33:50;1024.2;;;11.7;57.5
45113;BME280;30873;53.908;27.576;2022-10-16T06:38:59;1024.2;;;11.7;57.7
45113;BME280;30873;53.908;27.576;2022-10-16T06:43:42;1024.3;;;11.9;57.1
45113;BME280;30873;53.908;27.576;2022-10-16T06:48:49;1024.3;;;11.9;56.8
45113;BME280;30873;53.908;27.576;2022-10-16T06:53:42;1024.3;;;12;56.6
45113;BME280;30873;53.908;27.576;2022-10-16T06:59:00;1024.3;;;12.1;56.2
45113;BME280;30873;53.908;27.576;2022-10-16T07:03:52;1024.3;;;12.2;55.7
45113;BME280;30873;53.908;27.576;2022-10-16T07:08:52;1024.3;;;12.3;55.3
45113;BME280;30873;53.908;27.576;2022-10-16T07:13:42;1024.3;;;12.4;54.9
45113;BME280;30873;53.908;27.576;2022-10-16T07:18:52;1024.2;;;12.6;54.5
45113;BME280;30873;53.908;27.576;2022-10-16T07:23:42;1024.3;;;13;53.7
45113;BME280;30873;53.908;27.576;2022-10-16T07:28:42;1024.3;;;13.3;52.7
45113;BME280;30873;53.908;27.576;2022-10-16T07:33:50;1024.3;;;13.7;52
45113;BME280;30873;53.908;27.576;2022-10-16T07:38:42;1024.4;;;13.9;51.2
45113;BME280;30873;53.908;27.576;2022-10-16T07:43:44;1024.3;;;13.6;51.7
45113;BME280;30873;53.908;27.576;2022-10-16T07:48:42;1024.4;;;13.6;51.9
45113;BME280;30873;53.908;27.576;2022-10-16T07:53:41;1024.5;;;13.4;52.6
45113;BME280;30873;53.908;27.576;2022-10-16T07:58:41;1024.5;;;13.9;51.8
45113;BME280;30873;53.908;27.576;2022-10-16T08:03:42;1024.5;;;14.3;50.6
45113;BME280;30873;53.908;27.576;2022-10-16T08:08:39;1024.6;;;14.4;50.4
45113;BME280;30873;53.908;27.576;2022-10-16T08:13:41;1024.6;;;14.8;49.8
45113;BME280;30873;53.908;27.576;2022-10-16T08:18:49;1024.5;;;15.4;48.8
45113;BME280;30873;53.908;27.576;2022-10-16T08:23:41;1024.5;;;15.5;48.6
45113;BME280;30873;53.908;27.576;2022-10-16T08:29:03;1024.5;;;15.6;48.4
45113;BME280;30873;53.908;27.576;2022-10-16T08:33:49;1024.4;;;15.8;48.2
45113;BME280;30873;53.908;27.576;2022-10-16T08:39:02;1024.5;;;16;47.9
45113;BME280;30873;53.908;27.576;2022-10-16T08:43:43;1024.5;;;16.6;46.9
45113;BME280;30873;53.908;27.576;2022-10-16T08:49:03;1024.5;;;17.2;46.1
45113;BME280;30873;53.908;27.576;2022-10-16T08:53:44;1024.4;;;17.5;45.6
45113;BME280;30873;53.908;27.576;2022-10-16T08:58:52;1024.5;;;17.8;45.1
45113;BME280;30873;53.908;27.576;2022-10-16T09:03:59;1024.5;;;18.4;44.1
45113;BME280;30873;53.908;27.576;2022-10-16T09:09:04;1024.5;;;18.3;43.9
45113;BME280;30873;53.908;27.576;2022-10-16T09:13:53;1024.6;;;18.1;44.7
45113;BME280;30873;53.908;27.576;2022-10-16T09:18:54;1024.6;;;18;44.8
45113;BME280;30873;53.908;27.576;2022-10-16T09:23:52;1024.5;;;17.8;45.3
45113;BME280;30873;53.908;27.576;2022-10-16T09:28:57;1024.5;;;17.7;45.6
45113;BME280;30873;53.908;27.576;2022-10-16T09:33:42;1024.5;;;17.7;45.9
45113;BME280;30873;53.908;27.576;2022-10-16T09:38:41;1024.5;;;17.6;46
45113;BME280;30873;53.908;27.576;2022-10-16T09:43:42;1024.5;;;17.6;46.1
45113;BME280;30873;53.908;27.576;2022-10-16T09:48:50;1024.5;;;17.5;46.3
45113;BME280;30873;53.908;27.576;2022-10-16T09:54:00;1024.4;;;17.6;46.1
45113;BME280;30873;53.908;27.576;2022-10-16T09:59:00;1024.4;;;17.4;46.4
45113;BME280;30873;53.908;27.576;2022-10-16T10:03:55;1024.4;;;17.3;46.4
45113;BME280;30873;53.908;27.576;2022-10-16T10:08:52;1024.5;;;17.1;46.7
45113;BME280;30873;53.908;27.576;2022-10-16T10:13:41;1024.5;;;17.1;46.9
45113;BME280;30873;53.908;27.576;2022-10-16T10:18:57;1024.5;;;17;47.1
45113;BME280;30873;53.908;27.576;2022-10-16T10:24:14;1024.5;;;17;47
45113;BME280;30873;53.908;27.576;2022-10-16T10:28:46;1024.5;;;16.9;47.2
45113;BME280;30873;53.908;27.576;2022-10-16T10:33:43;1024.4;;;16.9;47.2
45113;BME280;30873;53.908;27.576;2022-10-16T10:38:52;1024.4;;;17.1;47.1
45113;BME280;30873;53.908;27.576;2022-10-16T10:43:45;1024.5;;;17.3;46.8
45113;BME280;30873;53.908;27.576;2022-10-16T10:48:45;1024.5;;;17.2;46.8
45113;BME280;30873;53.908;27.576;2022-10-16T10:53:52;1024.5;;;17.3;46.6
45113;BME280;30873;53.908;27.576;2022-10-16T10:58:47;1024.5;;;17.3;46.4
45113;BME280;30873;53.908;27.576;2022-10-16T11:04:06;1024.4;;;17.2;46.3
45113;BME280;30873;53.908;27.576;2022-10-16T11:08:52;1024.4;;;17.3;46.2
45113;BME280;30873;53.908;27.576;2022-10-16T11:13:43;1024.3;;;17.4;45.7
45113;BME280;30873;53.908;27.576;2022-10-16T11:19:14;1024.3;;;17.4;45.6
45113;BME280;30873;53.908;27.576;2022-10-16T11:23:42;1024.3;;;17.8;45.1
45113;BME280;30873;53.908;27.576;2022-10-16T11:28:42;1024.4;;;18.2;44.2
45113;BME280;30873;53.908;27.576;2022-10-16T11:33:51;1024.3;;;18.9;42.9
45113;BME280;30873;53.908;27.576;2022-10-16T11:39:11;1024.3;;;19.4;42.1
45113;BME280;30873;53.908;27.576;2022-10-16T11:43:43;1024.3;;;19.1;42.2
45113;BME280;30873;53.908;27.576;2022-10-16T11:48:43;1024.1;;;19.1;42.4
45113;BME280;30873;53.908;27.576;2022-10-16T11:53:44;1024.1;;;19.1;42.1
45113;BME280;30873;53.908;27.576;2022-10-16T11:58:45;1024.1;;;19.2;41.9
45113;BME280;30873;53.908;27.576;2022-10-16T12:03:54;1024;;;19.2;42
45113;BME280;30873;53.908;27.576;2022-10-16T12:08:42;1023.9;;;19.8;41.4
45113;BME280;30873;53.908;27.576;2022-10-16T12:14:05;1023.9;;;19.9;40.8
45113;BME280;30873;53.908;27.576;2022-10-16T12:19:07;1023.9;;;19.3;41.4
45113;BME280;30873;53.908;27.576;2022-10-16T12:24:20;1024;;;19.1;41.8
45113;BME280;30873;53.908;27.576;2022-10-16T12:29:09;1024;;;18.9;42
45113;BME280;30873;53.908;27.576;2022-10-16T12:33:43;1024;;;18.5;42.7
45113;BME280;30873;53.908;27.576;2022-10-16T12:38:52;1024;;;18.2;43.3
45113;BME280;30873;53.908;27.576;2022-10-16T12:43:42;1024.1;;;18.1;43.7
45113;BME280;30873;53.908;27.576;2022-10-16T12:48:42;1024.1;;;18.3;43.5
45113;BME280;30873;53.908;27.576;2022-10-16T12:54:02;1024.2;;;18.5;43.1
45113;BME280;30873;53.908;27.576;2022-10-16T12:58:45;1024.2;;;18.5;42.9
45113;BME280;30873;53.908;27.576;2022-10-16T13:03:48;1024.2;;;18.3;43.2
45113;BME280;30873;53.908;27.576;2022-10-16T13:08:45;1024.2;;;18.1;43.4
45113;BME280;30873;53.908;27.576;2022-10-16T13:13:46;1024.2;;;18;43.4
45113;BME280;30873;53.908;27.576;2022-10-16T13:18:44;1024.1;;;17.8;43.6
45113;BME280;30873;53.908;27.576;2022-10-16T13:24:01;1024.2;;;17.7;43.7
45113;BME280;30873;53.908;27.576;2022-10-16T13:28:52;1024.2;;;17.6;43.5
45113;BME280;30873;53.908;27.576;2022-10-16T13:33:42;1024;;;17.6;43.6
45113;BME280;30873;53.908;27.576;2022-10-16T13:39:01;1024;;;17.5;43.6
45113;BME280;30873;53.908;27.576;2022-10-16T13:44:05;1024;;;17.4;43.5
45113;BME280;30873;53.908;27.576;2022-10-16T13:48:57;1023.9;;;17.3;42.7
45113;BME280;30873;53.908;27.576;2022-10-16T13:53:54;1023.9;;;17.3;42.2
45113;BME280;30873;53.908;27.576;2022-10-16T13:59:01;1024;;;17.3;41.6
45113;BME280;30873;53.908;27.576;2022-10-16T14:03:42;1024.1;;;17.4;40.8
45113;BME280;30873;53.908;27.576;2022-10-16T14:09:16;1024.1;;;17.4;40.3
45113;BME280;30873;53.908;27.576;2022-10-16T14:13:43;1024.1;;;17.4;40.2
45113;BME280;30873;53.908;27.576;2022-10-16T14:18:42;1024.1;;;17.4;40.2
45113;BME280;30873;53.908;27.576;2022-10-16T14:23:42;1024.1;;;17.2;40.3
45113;BME280;30873;53.908;27.576;2022-10-16T14:28:42;1024.1;;;17.3;40.5
45113;BME280;30873;53.908;27.576;2022-10-16T14:33:42;1024.3;;;17.3;40.5
45113;BME280;30873;53.908;27.576;2022-10-16T14:39:00;1024.4;;;17.1;40.8
45113;BME280;30873;53.908;27.576;2022-10-16T14:44:02;1024.4;;;16.8;41.2
45113;BME280;30873;53.908;27.576;2022-10-16T14:48:42;1024.4;;;16.4;41.8
45113;BME280;30873;53.908;27.576;2022-10-16T14:54:00;1024.4;;;16.2;42.2
45113;BME280;30873;53.908;27.576;2022-10-16T14:58:42;1024.4;;;16;42.5
45113;BME280;30873;53.908;27.576;2022-10-16T15:03:50;1024.4;;;15.9;42.6
45113;BME280;30873;53.908;27.576;2022-10-16T15:08:42;1024.4;;;15.8;42.8
45113;BME280;30873;53.908;27.576;2022-10-16T15:13:42;1024.3;;;15.7;43.1
45113;BME280;30873;53.908;27.576;2022-10-16T15:18:42;1024.3;;;15.6;43.3
45113;BME280;30873;53.908;27.576;2022-10-16T15:23:52;1024.3;;;15.5;43.6
45113;BME280;30873;53.908;27.576;2022-10-16T15:29:00;1024.4;;;15.4;43.7
45113;BME280;30873;53.908;27.576;2022-10-16T15:33:52;1024.4;;;15.3;44
45113;BME280;30873;53.908;27.576;2022-10-16T15:38:42;1024.4;;;15.3;44.1
45113;BME280;30873;53.908;27.576;2022-10-16T15:43:42;1024.5;;;15.2;44.3
45113;BME280;30873;53.908;27.576;2022-10-16T15:48:50;1024.5;;;15.1;44.6
45113;BME280;30873;53.908;27.576;2022-10-16T15:53:50;1024.6;;;15;44.8
45113;BME280;30873;53.908;27.576;2022-10-16T15:58:42;1024.6;;;15;45
45113;BME280;30873;53.908;27.576;2022-10-16T16:03:42;1024.6;;;14.9;45
45113;BME280;30873;53.908;27.576;2022-10-16T16:09:04;1024.7;;;14.9;45.2
45113;BME280;30873;53.908;27.576;2022-10-16T16:13:42;1024.7;;;15;45.2
45113;BME280;30873;53.908;27.576;2022-10-16T16:18:52;1024.7;;;15;45.2
45113;BME280;30873;53.908;27.576;2022-10-16T16:24:00;1024.8;;;15;45.1
45113;BME280;30873;53.908;27.576;2022-10-16T16:28:42;1024.9;;;15.1;45.1
45113;BME280;30873;53.908;27.576;2022-10-16T16:33:50;1024.9;;;15.1;45
45113;BME280;30873;53.908;27.576;2022-10-16T16:38:42;1024.9;;;15.2;44.9
45113;BME280;30873;53.908;27.576;2022-10-16T16:43:42;1024.9;;;15.2;45
45113;BME280;30873;53.908;27.576;2022-10-16T16:49:04;1025;;;15.2;45
45113;BME280;30873;53.908;27.576;2022-10-16T16:53:44;1025;;;15.2;45
45113;BME280;30873;53.908;27.576;2022-10-16T16:58:44;1025;;;15.2;45
45113;BME280;30873;53.908;27.576;2022-10-16T17:03:42;1025.1;;;15.2;45
45113;BME280;30873;53.908;27.576;2022-10-16T17:08:40;1025.1;;;15.2;44.9
45113;BME280;30873;53.908;27.576;2022-10-16T17:14:02;1025.1;;;15.2;44.9
45113;BME280;30873;53.908;27.576;2022-10-16T17:18:42;1025.1;;;15.2;44.9
45113;BME280;30873;53.908;27.576;2022-10-16T17:23:42;1025;;;15.2;44.9
45113;BME280;30873;53.908;27.576;2022-10-16T17:28:50;1025;;;15.2;44.9
45113;BME280;30873;53.908;27.576;2022-10-16T17:34:00;1025;;;15.2;44.9
45113;BME280;30873;53.908;27.576;2022-10-16T17:38:42;1025;;;15.2;44.9
45113;BME280;30873;53.908;27.576;2022-10-16T17:44:00;1025.1;;;15.2;44.9
45113;BME280;30873;53.908;27.576;2022-10-16T17:48:53;1025.1;;;15.2;44.9
45113;BME280;30873;53.908;27.576;2022-10-16T17:53:42;1025;;;15.1;45
45113;BME280;30873;53.908;27.576;2022-10-16T17:58:52;1024.9;;;15.1;45
45113;BME280;30873;53.908;27.576;2022-10-16T18:03:50;1024.9;;;15;45.1
45113;BME280;30873;53.908;27.576;2022-10-16T18:08:48;1025;;;14.9;45.3
45113;BME280;30873;53.908;27.576;2022-10-16T18:13:58;1025.1;;;14.8;45.5
45113;BME280;30873;53.908;27.576;2022-10-16T18:18:50;1025.1;;;14.8;45.6
45113;BME280;30873;53.908;27.576;2022-10-16T18:23:42;1025.2;;;14.7;45.7
45113;BME280;30873;53.908;27.576;2022-10-16T18:28:42;1025.2;;;14.7;45.9
45113;BME280;30873;53.908;27.576;2022-10-16T18:33:42;1025.1;;;14.6;46
45113;BME280;30873;53.908;27.576;2022-10-16T18:39:03;1025.1;;;14.6;46.1
45113;BME280;30873;53.908;27.576;2022-10-16T18:43:42;1025.2;;;14.6;46.2
45113;BME280;30873;53.908;27.576;2022-10-16T18:48:50;1025.1;;;14.6;46.3
45113;BME280;30873;53.908;27.576;2022-10-16T18:54:00;1025.1;;;14.6;46.4
45113;BME280;30873;53.908;27.576;2022-10-16T18:58:50;1025;;;14.6;46.4
45113;BME280;30873;53.908;27.576;2022-10-16T19:03:52;1025.1;;;14.6;46.5
45113;BME280;30873;53.908;27.576;2022-10-16T19:08:50;1025.1;;;14.7;46.5
45113;BME280;30873;53.908;27.576;2022-10-16T19:13:42;1025.1;;;14.7;46.5
45113;BME280;30873;53.908;27.576;2022-10-16T19:18:42;1025;;;14.7;46.4
45113;BME280;30873;53.908;27.576;2022-10-16T19:23:42;1024.9;;;14.6;46.6
45113;BME280;30873;53.908;27.576;2022-10-16T19:28:50;1025;;;14.7;46.7
45113;BME280;30873;53.908;27.576;2022-10-16T19:33:52;1025.1;;;14.7;46.7
45113;BME280;30873;53.908;27.576;2022-10-16T19:38:51;1025.1;;;14.7;46.8
45113;BME280;30873;53.908;27.576;2022-10-16T19:43:40;1025.1;;;14.7;46.8
45113;BME280;30873;53.908;27.576;2022-10-16T19:48:42;1025.2;;;14.7;47
45113;BME280;30873;53.908;27.576;2022-10-16T19:53:52;1025.2;;;14.7;46.9
45113;BME280;30873;53.908;27.576;2022-10-16T19:59:16;1025.1;;;14.7;47.1
45113;BME280;30873;53.908;27.576;2022-10-16T20:04:02;1025;;;14.6;47.3
45113;BME280;30873;53.908;27.576;2022-10-16T20:08:42;1025;;;14.6;47.4
45113;BME280;30873;53.908;27.576;2022-10-16T20:13:52;1025;;;14.6;47.6
45113;BME280;30873;53.908;27.576;2022-10-16T20:18:42;1025.1;;;14.5;47.6
45113;BME280;30873;53.908;27.576;2022-10-16T20:23:58;1025.2;;;14.6;47.7
45113;BME280;30873;53.908;27.576;2022-10-16T20:28:42;1025.2;;;14.6;47.8
45113;BME280;30873;53.908;27.576;2022-10-16T20:33:42;1025.1;;;14.6;48.1
45113;BME280;30873;53.908;27.576;2022-10-16T20:39:02;1024.9;;;14.6;48.4
45113;BME280;30873;53.908;27.576;2022-10-16T20:43:43;1024.9;;;14.6;48.5
45113;BME280;30873;53.908;27.576;2022-10-16T20:48:52;1024.9;;;14.5;48.6
45113;BME280;30873;53.908;27.576;2022-10-16T20:53:42;1024.9;;;14.5;48.8
45113;BME280;30873;53.908;27.576;2022-10-16T20:58:42;1024.9;;;14.5;49
45113;BME280;30873;53.908;27.576;2022-10-16T21:04:03;1025;;;14.5;49.1
45113;BME280;30873;53.908;27.576;2022-10-16T21:08:52;1025;;;14.5;49.3
45113;BME280;30873;53.908;27.576;2022-10-16T21:13:52;1025.1;;;14.6;49.2
45113;BME280;30873;53.908;27.576;2022-10-16T21:18:54;1025.1;;;14.6;49.4
45113;BME280;30873;53.908;27.576;2022-10-16T21:23:42;1025.1;;;14.6;49.4
45113;BME280;30873;53.908;27.576;2022-10-16T21:28:42;1025.2;;;14.7;49.4
45113;BME280;30873;53.908;27.576;2022-10-16T21:33:42;1025.1;;;14.7;49.4
45113;BME280;30873;53.908;27.576;2022-10-16T21:39:00;1025.2;;;14.7;49.5
45113;BME280;30873;53.908;27.576;2022-10-16T21:43:42;1025.2;;;14.7;49.6
45113;BME280;30873;53.908;27.576;2022-10-16T21:48:52;1025.1;;;14.6;49.7
45113;BME280;30873;53.908;27.576;2022-10-16T21:53:42;1025;;;14.6;50
45113;BME280;30873;53.908;27.576;2022-10-16T21:59:06;1025.1;;;14.6;50.2
45113;BME280;30873;53.908;27.576;2022-10-16T22:03:42;1025;;;14.6;50.3
45113;BME280;30873;53.908;27.576;2022-10-16T22:08:50;1024.9;;;14.5;50.6
45113;BME280;30873;53.908;27.576;2022-10-16T22:14:16;1024.7;;;14.5;50.8
45113;BME280;30873;53.908;27.576;2022-10-16T22:18:42;1024.8;;;14.4;51
45113;BME280;30873;53.908;27.576;2022-10-16T22:24:04;1024.8;;;14.4;51.2
45113;BME280;30873;53.908;27.576;2022-10-16T22:28:42;1024.9;;;14.4;51.3
45113;BME280;30873;53.908;27.576;2022-10-16T22:33:42;1024.9;;;14.4;51.5
45113;BME280;30873;53.908;27.576;2022-10-16T22:38:40;1024.9;;;14.4;51.5
45113;BME280;30873;53.908;27.576;2022-10-16T22:43:42;1025;;;14.5;51.4
45113;BME280;30873;53.908;27.576;2022-10-16T22:48:42;1024.9;;;14.6;51.4
45113;BME280;30873;53.908;27.576;2022-10-16T22:53:52;1024.9;;;14.6;51.4
45113;BME280;30873;53.908;27.576;2022-10-16T22:58:50;1024.9;;;14.5;51.7
45113;BME280;30873;53.908;27.576;2022-10-16T23:04:08;1024.9;;;14.5;51.8
45113;BME280;30873;53.908;27.576;2022-10-16T23:08:42;1024.9;;;14.5;52.1
45113;BME280;30873;53.908;27.576;2022-10-16T23:13:42;1025;;;14.6;52.5
45113;BME280;30873;53.908;27.576;2022-10-16T23:18:52;1025;;;14.6;53.2
45113;BME280;30873;53.908;27.576;2022-10-16T23:23:58;1024.9;;;14.6;53.8
45113;BME280;30873;53.908;27.576;2022-10-16T23:29:00;1025;;;14.4;55.4
45113;BME280;30873;53.908;27.576;2022-10-16T23:33:50;1025;;;14.3;56.1
45113;BME280;30873;53.908;27.576;2022-10-16T23:38:42;1025.1;;;14.3;56.7
45113;BME280;30873;53.908;27.576;2022-10-16T23:43:42;1025.1;;;14.2;57.7
45113;BME280;30873;53.908;27.576;2022-10-16T23:48:50;1025.1;;;14;58.7
45113;BME280;30873;53.908;27.576;2022-10-16T23:53:42;1025.1;;;13.9;60.1
45113;BME280;30873;53.908;27.576;2022-10-16T23:59:08;1025.1;;;13.9;61.2
